createdAt,value
2018-12-05T00:01:46.263Z,102416.95
2018-12-05T00:04:15.588Z,102419.11
2018-12-05T00:06:44.871Z,102416.61
2018-12-05T00:09:14.162Z,102414.94
2018-12-05T00:11:43.430Z,102415.74
2018-12-05T00:14:12.730Z,102420.63
2018-12-05T00:16:42.006Z,102413.75
2018-12-05T00:19:11.279Z,102417.27
2018-12-05T00:21:40.548Z,102413.39
2018-12-05T00:24:09.826Z,102410.05
2018-12-05T00:26:39.182Z,102413.33
2018-12-05T00:29:08.468Z,102411.36
2018-12-05T00:31:37.749Z,102406.65
2018-12-05T00:34:07.034Z,102418.65
2018-12-05T00:36:36.304Z,102421.09
2018-12-05T00:39:26.185Z,102416.11
2018-12-05T00:41:55.478Z,102422.13
2018-12-05T00:44:24.762Z,102426.70
2018-12-05T00:46:54.039Z,102428.59
2018-12-05T00:49:23.344Z,102424.68
2018-12-05T00:51:52.623Z,102426.02
2018-12-05T00:54:21.904Z,102419.66
2018-12-05T00:56:51.190Z,102424.83
2018-12-05T00:59:20.461Z,102433.02
2018-12-05T01:01:49.750Z,102434.91
2018-12-05T01:04:19.242Z,102437.61
2018-12-05T01:06:48.539Z,102434.56
2018-12-05T01:09:17.809Z,102440.53
2018-12-05T01:11:47.085Z,102440.48
2018-12-05T01:14:16.444Z,102451.67
2018-12-05T01:16:45.723Z,102451.36
2018-12-05T01:19:14.995Z,102455.98
2018-12-05T01:21:44.275Z,102460.28
2018-12-05T01:24:13.554Z,102456.70
2018-12-05T01:26:42.843Z,102457.49
2018-12-05T01:29:12.143Z,102460.19
2018-12-05T01:31:41.424Z,102462.08
2018-12-05T01:34:10.695Z,102462.03
2018-12-05T01:36:40.001Z,102465.27
2018-12-05T01:39:09.663Z,102478.37
2018-12-05T01:41:38.970Z,102475.36
2018-12-05T01:44:08.245Z,102480.26
2018-12-05T01:46:37.526Z,102478.31
2018-12-05T01:49:06.844Z,102475.53
2018-12-05T01:51:36.121Z,102477.95
2018-12-05T01:54:05.390Z,102476.53
2018-12-05T01:56:34.673Z,102477.33
2018-12-05T01:59:03.943Z,102479.53
2018-12-05T02:01:33.242Z,102484.42
2018-12-05T02:04:02.534Z,102489.31
2018-12-05T02:06:31.808Z,102484.33
2018-12-05T02:09:01.077Z,102484.54
2018-12-05T02:11:30.387Z,102489.16
2018-12-05T02:13:59.683Z,102491.90
2018-12-05T02:16:28.994Z,102485.59
2018-12-05T02:18:58.260Z,102493.52
2018-12-05T02:21:27.548Z,102490.22
2018-12-05T02:23:56.837Z,102486.89
2018-12-05T02:26:26.104Z,102480.53
2018-12-05T02:28:55.387Z,102479.42
2018-12-05T02:31:24.669Z,102477.75
2018-12-05T02:33:53.939Z,102479.95
2018-12-05T02:36:23.228Z,102476.38
2018-12-05T02:38:52.541Z,102477.17
2018-12-05T02:41:21.837Z,102475.80
2018-12-05T02:43:51.153Z,102471.13
2018-12-05T02:46:20.455Z,102478.22
2018-12-05T02:48:49.737Z,102478.22
2018-12-05T02:51:19.005Z,102473.28
2018-12-05T02:53:48.434Z,102474.91
2018-12-05T02:56:17.711Z,102476.00
2018-12-05T02:58:47.021Z,102471.84
2018-12-05T03:01:16.341Z,102477.31
2018-12-05T03:03:45.697Z,102475.95
2018-12-05T03:06:14.925Z,102480.88
2018-12-05T03:08:44.245Z,102471.84
2018-12-05T03:11:13.529Z,102471.05
2018-12-05T03:13:42.823Z,102472.38
2018-12-05T03:16:12.099Z,102468.00
2018-12-05T03:18:41.388Z,102466.33
2018-12-05T03:21:10.658Z,102470.42
2018-12-05T03:23:39.988Z,102463.59
2018-12-05T03:26:09.260Z,102468.22
2018-12-05T03:28:38.563Z,102469.90
2018-12-05T03:31:07.871Z,102464.13
2018-12-05T03:33:37.193Z,102470.69
2018-12-05T03:36:06.430Z,102467.06
2018-12-05T03:38:35.715Z,102471.67
2018-12-05T03:41:05.009Z,102475.20
2018-12-05T03:43:34.329Z,102471.34
2018-12-05T03:46:03.604Z,102476.23
2018-12-05T03:48:32.875Z,102476.19
2018-12-05T03:51:02.172Z,102479.98
2018-12-05T03:53:31.448Z,102480.23
2018-12-05T03:56:00.734Z,102494.44
2018-12-05T03:58:30.068Z,102487.86
2018-12-05T04:00:59.357Z,102491.68
2018-12-05T04:03:28.663Z,102494.41
2018-12-05T04:05:57.931Z,102503.14
2018-12-05T04:08:27.289Z,102499.24
2018-12-05T04:10:56.643Z,102496.45
2018-12-05T04:13:25.960Z,102496.71
2018-12-05T04:15:55.289Z,102491.50
2018-12-05T04:18:24.587Z,102493.09
2018-12-05T04:21:13.470Z,102488.98
2018-12-05T04:23:42.771Z,102495.02
2018-12-05T04:26:12.050Z,102491.14
2018-12-05T04:28:41.298Z,102494.37
2018-12-05T04:31:10.601Z,102493.48
2018-12-05T04:33:39.878Z,102492.09
2018-12-05T04:36:09.171Z,102495.36
2018-12-05T04:38:38.412Z,102499.45
2018-12-05T04:41:07.688Z,102498.36
2018-12-05T04:43:36.953Z,102493.46
2018-12-05T04:46:06.254Z,102496.47
2018-12-05T04:48:35.512Z,102491.84
2018-12-05T04:51:04.806Z,102497.84
2018-12-05T04:53:34.086Z,102489.64
2018-12-05T04:56:03.362Z,102491.53
2018-12-05T04:58:32.631Z,102489.11
2018-12-05T05:01:01.914Z,102498.92
2018-12-05T05:03:31.180Z,102502.19
2018-12-05T05:06:00.491Z,102501.08
2018-12-05T05:08:29.760Z,102496.67
2018-12-05T05:10:59.079Z,102498.28
2018-12-05T05:16:17.686Z,102495.24
2018-12-05T05:18:47.010Z,102502.86
2018-12-05T05:21:16.364Z,102498.73
2018-12-05T05:23:45.639Z,102494.02
2018-12-05T05:26:14.968Z,102501.63
2018-12-05T05:28:44.239Z,102504.55
2018-12-05T05:31:13.549Z,102500.44
2018-12-05T05:33:42.854Z,102508.84
2018-12-05T05:36:12.129Z,102510.72
2018-12-05T05:38:41.422Z,102518.58
2018-12-05T05:41:10.709Z,102517.98
2018-12-05T05:43:40.073Z,102521.97
2018-12-05T05:46:09.370Z,102530.66
2018-12-05T05:48:38.666Z,102532.23
2018-12-05T05:51:07.966Z,102529.17
2018-12-05T05:53:37.276Z,102532.92
2018-12-05T05:56:06.572Z,102531.44
2018-12-05T05:58:35.892Z,102530.04
2018-12-05T06:01:05.187Z,102527.19
2018-12-05T06:03:34.498Z,102528.45
2018-12-05T06:06:03.783Z,102527.62
2018-12-05T06:08:33.064Z,102534.91
2018-12-05T06:11:02.351Z,102532.67
2018-12-05T06:13:31.649Z,102536.70
2018-12-05T06:16:00.995Z,102529.04
2018-12-05T06:18:30.300Z,102523.55
2018-12-05T06:20:59.797Z,102524.60
2018-12-05T06:23:29.078Z,102524.08
2018-12-05T06:25:58.358Z,102523.83
2018-12-05T06:28:27.701Z,102518.44
2018-12-05T06:30:57.003Z,102519.27
2018-12-05T06:33:26.471Z,102513.56
2018-12-05T06:35:55.794Z,102518.00
2018-12-05T06:38:25.154Z,102519.95
2018-12-05T06:40:54.424Z,102517.57
2018-12-05T06:43:23.739Z,102524.77
2018-12-05T06:45:53.024Z,102523.68
2018-12-05T06:48:22.301Z,102527.25
2018-12-05T06:50:51.623Z,102529.45
2018-12-05T06:53:20.905Z,102529.73
2018-12-05T06:55:50.279Z,102533.05
2018-12-05T06:58:19.581Z,102535.78
2018-12-05T07:00:48.875Z,102544.31
2018-12-05T07:03:18.149Z,102538.08
2018-12-05T07:05:47.448Z,102536.77
2018-12-05T07:08:16.722Z,102538.45
2018-12-05T07:10:46.012Z,102534.94
2018-12-05T07:13:15.291Z,102534.44
2018-12-05T07:15:44.589Z,102542.38
2018-12-05T07:18:13.873Z,102541.39
2018-12-05T07:20:43.195Z,102547.12
2018-12-05T07:23:12.460Z,102544.98
2018-12-05T07:25:41.742Z,102545.30
2018-12-05T07:28:11.028Z,102548.03
2018-12-05T07:30:40.307Z,102549.98
2018-12-05T07:33:09.566Z,102546.16
2018-12-05T07:35:38.868Z,102543.19
2018-12-05T07:38:08.138Z,102549.23
2018-12-05T07:40:37.427Z,102544.61
2018-12-05T07:43:06.734Z,102543.05
2018-12-05T07:45:36.042Z,102543.39
2018-12-05T07:48:05.331Z,102541.49
2018-12-05T07:50:34.631Z,102539.88
2018-12-05T07:53:03.927Z,102539.66
2018-12-05T07:55:33.290Z,102545.45
2018-12-05T07:58:02.592Z,102553.71
2018-12-05T08:00:31.896Z,102551.56
2018-12-05T08:03:01.874Z,102559.83
2018-12-05T08:05:31.394Z,102553.52
2018-12-05T08:08:00.693Z,102557.95
2018-12-05T08:10:29.974Z,102553.60
2018-12-05T08:12:59.269Z,102553.13
2018-12-05T08:15:28.564Z,102551.23
2018-12-05T08:17:57.898Z,102559.71
2018-12-05T08:20:27.236Z,102557.29
2018-12-05T08:22:56.547Z,102558.93
2018-12-05T08:25:25.837Z,102554.89
2018-12-05T08:27:55.144Z,102550.92
2018-12-05T08:30:24.430Z,102553.20
2018-12-05T08:32:53.776Z,102556.33
2018-12-05T08:35:23.082Z,102559.45
2018-12-05T08:37:52.372Z,102553.58
2018-12-05T08:40:21.646Z,102556.21
2018-12-05T08:42:50.942Z,102553.07
2018-12-05T08:45:20.236Z,102555.45
2018-12-05T08:47:49.535Z,102556.67
2018-12-05T08:50:18.835Z,102557.62
2018-12-05T08:52:48.154Z,102553.94
2018-12-05T08:55:17.437Z,102552.64
2018-12-05T08:57:46.744Z,102556.05
2018-12-05T09:00:16.036Z,102550.14
2018-12-05T09:02:45.343Z,102549.14
2018-12-05T09:05:14.671Z,102546.27
2018-12-05T09:07:43.960Z,102549.94
2018-12-05T09:10:13.239Z,102552.25
2018-12-05T09:12:42.526Z,102551.80
2018-12-05T09:15:11.834Z,102545.32
2018-12-05T09:17:41.136Z,102551.50
2018-12-05T09:20:10.437Z,102547.88
2018-12-05T09:22:41.384Z,102552.69
2018-12-05T09:25:09.996Z,102555.08
2018-12-05T09:27:39.275Z,102553.02
2018-12-05T09:30:08.559Z,102554.84
2018-12-05T09:32:37.865Z,102552.19
2018-12-05T09:35:07.440Z,102558.34
2018-12-05T09:37:36.886Z,102555.11
2018-12-05T09:40:06.458Z,102546.06
2018-12-05T09:42:35.775Z,102550.20
2018-12-05T09:45:05.473Z,102541.47
2018-12-05T09:47:34.769Z,102541.45
2018-12-05T09:50:04.059Z,102547.22
2018-12-05T09:52:33.431Z,102546.95
2018-12-05T09:55:02.738Z,102546.92
2018-12-05T09:57:32.044Z,102548.32
2018-12-05T10:00:01.329Z,102547.27
2018-12-05T10:02:30.661Z,102542.93
2018-12-05T10:04:59.966Z,102544.11
2018-12-05T10:07:29.319Z,102545.22
2018-12-05T10:09:58.596Z,102546.95
2018-12-05T10:12:27.916Z,102541.52
2018-12-05T10:14:57.191Z,102539.91
2018-12-05T10:17:26.481Z,102538.78
2018-12-05T10:19:55.766Z,102540.43
2018-12-05T10:22:25.072Z,102531.91
2018-12-05T10:24:54.456Z,102527.27
2018-12-05T10:27:23.757Z,102527.23
2018-12-05T10:29:53.131Z,102523.12
2018-12-05T10:32:22.411Z,102522.80
2018-12-05T10:34:51.709Z,102519.53
2018-12-05T10:37:21.011Z,102510.48
2018-12-05T10:39:50.312Z,102510.19
2018-12-05T10:42:19.639Z,102511.83
2018-12-05T10:44:48.944Z,102510.19
2018-12-05T10:47:18.370Z,102517.02
2018-12-05T10:49:47.692Z,102512.03
2018-12-05T10:52:16.968Z,102503.20
2018-12-05T10:54:46.266Z,102505.95
2018-12-05T10:57:15.582Z,102506.25
2018-12-05T10:59:44.887Z,102505.14
2018-12-05T11:02:32.899Z,102501.02
2018-12-05T11:05:21.212Z,102493.09
2018-12-05T11:08:09.317Z,102492.00
2018-12-05T11:10:57.326Z,102491.73
2018-12-05T11:13:45.364Z,102488.40
2018-12-05T11:16:33.382Z,102485.67
2018-12-05T11:19:22.297Z,102490.63
2018-12-05T11:22:10.305Z,102480.22
2018-12-05T11:27:15.858Z,102474.42
2018-12-05T11:29:45.181Z,102472.73
2018-12-05T11:32:14.478Z,102471.05
2018-12-05T11:34:43.798Z,102472.73
2018-12-05T11:37:20.656Z,102469.41
2018-12-05T11:39:49.941Z,102470.25
2018-12-05T11:42:19.213Z,102456.78
2018-12-05T11:44:48.498Z,102454.33
2018-12-05T11:47:17.775Z,102448.56
2018-12-05T11:49:47.054Z,102443.63
2018-12-05T11:52:16.337Z,102443.06
2018-12-05T11:54:45.651Z,102442.53
2018-12-05T11:57:14.925Z,102442.27
2018-12-05T11:59:44.262Z,102437.63
2018-12-05T12:02:13.551Z,102439.55
2018-12-05T12:04:42.855Z,102435.18
2018-12-05T12:07:12.192Z,102438.50
2018-12-05T12:09:41.518Z,102431.91
2018-12-05T12:12:29.553Z,102422.58
2018-12-05T12:14:58.889Z,102423.40
2018-12-05T12:17:28.181Z,102416.52
2018-12-05T12:19:57.486Z,102421.44
2018-12-05T12:22:26.912Z,102418.41
2018-12-05T12:24:56.227Z,102408.50
2018-12-05T12:27:25.529Z,102406.56
2018-12-05T12:29:54.887Z,102404.93
2018-12-05T12:32:24.227Z,102400.83
2018-12-05T12:34:53.493Z,102396.98
2018-12-05T12:37:22.797Z,102399.17
2018-12-05T12:39:52.108Z,102396.69
2018-12-05T12:42:21.394Z,102395.05
2018-12-05T12:44:50.713Z,102397.53
2018-12-05T12:47:20.030Z,102392.05
2018-12-05T12:49:49.348Z,102393.97
2018-12-05T12:52:18.654Z,102388.73
2018-12-05T12:54:47.980Z,102390.91
2018-12-05T12:57:17.303Z,102388.97
2018-12-05T12:59:46.653Z,102384.58
2018-12-05T13:02:15.981Z,102381.58
2018-12-05T13:04:45.323Z,102382.69
2018-12-05T13:07:14.627Z,102376.92
2018-12-05T13:09:43.960Z,102372.80
2018-12-05T13:15:16.668Z,102373.88
2018-12-05T13:17:45.982Z,102360.13
2018-12-05T13:20:15.316Z,102359.27
2018-12-05T13:22:44.632Z,102344.42
2018-12-05T13:25:13.964Z,102340.01
2018-12-05T13:27:43.280Z,102346.59
2018-12-05T13:30:12.711Z,102339.72
2018-12-05T13:32:41.995Z,102347.40
2018-12-05T13:35:11.314Z,102328.97
2018-12-05T13:37:40.637Z,102323.74
2018-12-05T13:40:09.944Z,102319.90
2018-12-05T13:42:39.220Z,102325.92
2018-12-05T13:45:08.560Z,102328.91
2018-12-05T13:47:37.873Z,102332.73
2018-12-05T13:50:07.673Z,102326.95
2018-12-05T13:52:36.950Z,102321.96
2018-12-05T13:55:06.457Z,102327.70
2018-12-05T13:57:35.790Z,102313.98
2018-12-05T14:00:05.307Z,102315.85
2018-12-05T14:02:34.628Z,102309.25
2018-12-05T14:05:03.934Z,102298.55
2018-12-05T14:07:33.233Z,102297.16
2018-12-05T14:10:02.539Z,102289.46
2018-12-05T14:12:39.375Z,102285.06
2018-12-05T14:15:09.816Z,102279.83
2018-12-05T14:17:39.125Z,102278.95
2018-12-05T14:20:09.506Z,102277.00
2018-12-05T14:22:38.851Z,102277.52
2018-12-05T14:25:08.690Z,102270.67
2018-12-05T14:27:38.097Z,102272.85
2018-12-05T14:30:08.375Z,102272.53
2018-12-05T14:32:37.698Z,102267.05
2018-12-05T14:35:07.003Z,102260.45
2018-12-05T14:37:36.310Z,102257.14
2018-12-05T14:40:06.183Z,102257.97
2018-12-05T14:42:35.490Z,102254.97
2018-12-05T14:45:04.808Z,102264.52
2018-12-05T14:47:34.150Z,102251.59
2018-12-05T14:50:03.495Z,102251.59
2018-12-05T14:52:32.808Z,102246.36
2018-12-05T14:55:02.151Z,102250.98
2018-12-05T14:57:31.525Z,102251.52
2018-12-05T15:00:01.054Z,102247.92
2018-12-05T15:02:30.325Z,102243.52
2018-12-05T15:04:59.638Z,102241.84
2018-12-05T15:07:28.941Z,102243.19
2018-12-05T15:09:58.267Z,102237.95
2018-12-05T15:12:46.305Z,102237.69
2018-12-05T15:15:15.707Z,102230.30
2018-12-05T15:17:45.244Z,102236.02
2018-12-05T15:20:14.537Z,102231.64
2018-12-05T15:22:43.860Z,102229.45
2018-12-05T15:25:13.183Z,102225.06
2018-12-05T15:27:42.490Z,102228.08
2018-12-05T15:30:11.808Z,102215.48
2018-12-05T15:32:41.155Z,102219.29
2018-12-05T15:35:10.466Z,102219.85
2018-12-05T15:37:39.788Z,102216.58
2018-12-05T15:40:09.087Z,102214.38
2018-12-05T15:42:38.409Z,102208.36
2018-12-05T15:45:08.490Z,102208.89
2018-12-05T15:47:38.070Z,102200.92
2018-12-05T15:50:08.219Z,102190.50
2018-12-05T15:52:37.513Z,102190.20
2018-12-05T15:55:27.401Z,102181.16
2018-12-05T16:00:31.269Z,102161.93
2018-12-05T16:03:00.547Z,102166.58
2018-12-05T16:05:29.818Z,102152.03
2018-12-05T16:13:08.673Z,102148.16
2018-12-05T16:15:37.942Z,102145.40
2018-12-05T16:20:42.178Z,102142.11
2018-12-05T16:23:11.462Z,102135.80
2018-12-05T16:28:29.126Z,102122.62
2018-12-05T16:30:58.412Z,102117.92
2018-12-05T16:36:02.644Z,102115.45
2018-12-05T16:41:06.663Z,102095.48
2018-12-05T16:43:35.938Z,102098.75
2018-12-05T16:48:53.630Z,102088.06
2018-12-05T16:51:22.887Z,102082.35
2018-12-05T16:59:02.047Z,102067.05
2018-12-05T17:06:55.328Z,102049.28
2018-12-05T17:09:26.381Z,102043.53
2018-12-05T17:11:54.767Z,102046.01
2018-12-05T17:14:24.037Z,102052.05
2018-12-05T17:19:41.704Z,102044.92
2018-12-05T17:22:10.955Z,102041.08
2018-12-05T17:24:40.237Z,102036.17
2018-12-05T17:27:09.478Z,102035.60
2018-12-05T17:29:38.742Z,102029.59
2018-12-05T17:32:07.997Z,102029.88
2018-12-05T17:34:37.265Z,102033.42
2018-12-05T17:45:04.581Z,102003.28
2018-12-05T17:47:33.856Z,102001.38
2018-12-05T17:50:03.121Z,101996.99
2018-12-05T17:52:32.396Z,101988.22
2018-12-05T17:57:36.494Z,101984.95
2018-12-05T18:00:06.044Z,101978.09
2018-12-05T18:02:54.911Z,101977.28
2018-12-05T18:05:24.187Z,101980.56
2018-12-05T18:07:53.486Z,101977.28
2018-12-05T18:10:22.769Z,101967.14
2018-12-05T18:12:52.031Z,101964.11
2018-12-05T18:15:21.369Z,101956.73
2018-12-05T18:17:50.653Z,101946.84
2018-12-05T18:20:19.947Z,101946.30
2018-12-05T18:22:49.211Z,101942.73
2018-12-05T18:25:18.539Z,101946.55
2018-12-05T18:27:47.807Z,101941.89
2018-12-05T18:30:17.085Z,101944.36
2018-12-05T18:32:46.356Z,101947.36
2018-12-05T18:35:15.634Z,101944.63
2018-12-05T18:37:44.898Z,101937.52
2018-12-05T18:40:14.198Z,101932.02
2018-12-05T18:42:43.631Z,101933.95
2018-12-05T18:45:13.287Z,101934.50
2018-12-05T18:47:42.549Z,101923.55
2018-12-05T18:50:11.821Z,101921.64
2018-12-05T18:53:00.681Z,101920.81
2018-12-05T18:55:29.990Z,101922.18
2018-12-05T18:57:59.257Z,101918.61
2018-12-05T19:00:28.615Z,101913.70
2018-12-05T19:02:57.901Z,101907.13
2018-12-05T19:05:27.292Z,101898.35
2018-12-05T19:07:56.587Z,101897.26
2018-12-05T19:10:25.864Z,101890.41
2018-12-05T19:12:55.128Z,101879.72
2018-12-05T19:15:24.404Z,101881.92
2018-12-05T19:17:53.667Z,101874.82
2018-12-05T19:20:22.943Z,101873.71
2018-12-05T19:22:52.202Z,101869.60
2018-12-05T19:25:21.482Z,101863.86
2018-12-05T19:27:50.748Z,101852.62
2018-12-05T19:30:20.024Z,101857.56
2018-12-05T19:32:49.289Z,101857.02
2018-12-05T19:35:18.566Z,101845.50
2018-12-05T19:37:47.830Z,101838.41
2018-12-05T19:40:17.113Z,101837.03
2018-12-05T19:42:46.387Z,101829.38
2018-12-05T19:45:15.651Z,101821.98
2018-12-05T19:47:44.924Z,101812.39
2018-12-05T19:50:14.191Z,101811.02
2018-12-05T19:52:43.462Z,101808.84
2018-12-05T19:55:12.729Z,101816.22
2018-12-05T19:58:01.603Z,101815.69
2018-12-05T20:00:30.877Z,101817.31
2018-12-05T20:03:00.164Z,101817.33
2018-12-05T20:05:29.427Z,101818.70
2018-12-05T20:07:58.690Z,101815.16
2018-12-05T20:10:27.949Z,101811.30
2018-12-05T20:12:57.218Z,101807.20
2018-12-05T20:15:26.468Z,101809.67
2018-12-05T20:17:55.740Z,101797.59
2018-12-05T20:20:24.997Z,101799.80
2018-12-05T20:22:54.274Z,101797.59
2018-12-05T20:25:23.521Z,101784.48
2018-12-05T20:27:52.788Z,101788.31
2018-12-05T20:30:22.044Z,101776.52
2018-12-05T20:32:51.319Z,101785.27
2018-12-05T20:35:20.578Z,101769.95
2018-12-05T20:38:09.732Z,101779.27
2018-12-05T20:40:39.015Z,101771.05
2018-12-05T20:43:08.345Z,101772.16
2018-12-05T20:45:38.042Z,101763.12
2018-12-05T20:48:07.421Z,101760.64
2018-12-05T20:50:36.687Z,101766.40
2018-12-05T20:53:05.979Z,101764.48
2018-12-05T20:55:35.252Z,101764.20
2018-12-05T20:58:04.548Z,101761.18
2018-12-05T21:00:33.819Z,101751.05
2018-12-05T21:03:23.094Z,101744.77
2018-12-05T21:05:52.371Z,101734.62
2018-12-05T21:08:21.663Z,101737.09
2018-12-05T21:10:50.927Z,101734.63
2018-12-05T21:13:20.222Z,101737.36
2018-12-05T21:15:49.489Z,101735.99
2018-12-05T21:18:18.781Z,101736.83
2018-12-05T21:20:48.036Z,101731.89
2018-12-05T21:23:17.319Z,101733.81
2018-12-05T21:25:46.588Z,101723.95
2018-12-05T21:28:15.878Z,101722.30
2018-12-05T21:30:45.150Z,101720.93
2018-12-05T21:33:14.451Z,101713.55
2018-12-05T21:35:43.709Z,101714.63
2018-12-05T21:38:13.062Z,101717.36
2018-12-05T21:41:01.932Z,101717.11
2018-12-05T21:43:31.216Z,101713.27
2018-12-05T21:46:00.494Z,101717.92
2018-12-05T21:48:29.761Z,101718.75
2018-12-05T21:50:59.021Z,101713.82
2018-12-05T21:53:28.295Z,101716.81
2018-12-05T21:55:57.542Z,101720.38
2018-12-05T21:58:26.822Z,101719.82
2018-12-05T22:00:56.073Z,101718.20
2018-12-05T22:03:25.371Z,101717.38
2018-12-05T22:05:54.668Z,101713.53
2018-12-05T22:08:23.936Z,101715.98
2018-12-05T22:10:53.193Z,101710.25
2018-12-05T22:13:22.522Z,101703.39
2018-12-05T22:15:51.757Z,101700.66
2018-12-05T22:18:21.027Z,101698.46
2018-12-05T22:20:50.292Z,101694.61
2018-12-05T22:23:19.605Z,101686.67
2018-12-05T22:25:48.873Z,101678.16
2018-12-05T22:28:18.198Z,101677.91
2018-12-05T22:30:47.451Z,101671.34
2018-12-05T22:33:16.723Z,101673.52
2018-12-05T22:36:05.038Z,101669.97
2018-12-05T22:38:34.316Z,101661.18
2018-12-05T22:41:03.571Z,101659.81
2018-12-05T22:43:32.845Z,101651.34
2018-12-05T22:46:02.105Z,101649.68
2018-12-05T22:48:31.373Z,101646.11
2018-12-05T22:51:00.624Z,101640.37
2018-12-05T22:53:29.901Z,101639.01
2018-12-05T22:55:59.159Z,101636.27
2018-12-05T22:58:28.532Z,101633.24
2018-12-05T23:01:09.494Z,101628.59
2018-12-05T23:03:38.777Z,101621.20
2018-12-05T23:06:08.040Z,101619.00
2018-12-05T23:08:37.314Z,101615.44
2018-12-05T23:11:06.562Z,101612.16
2018-12-05T23:13:54.905Z,101613.52
2018-12-05T23:16:24.158Z,101603.11
2018-12-05T23:18:53.429Z,101609.95
2018-12-05T23:21:22.707Z,101605.55
2018-12-05T23:23:51.985Z,101597.34
2018-12-05T23:26:21.239Z,101592.14
2018-12-05T23:28:50.508Z,101600.63
2018-12-05T23:31:19.770Z,101592.40
2018-12-05T23:33:49.051Z,101577.87
2018-12-05T23:36:18.308Z,101577.04
2018-12-05T23:38:47.585Z,101567.77
2018-12-05T23:41:16.840Z,101553.49
2018-12-05T23:43:46.135Z,101557.03
2018-12-05T23:46:15.408Z,101546.10
2018-12-05T23:48:44.655Z,101541.16
2018-12-05T23:51:13.919Z,101544.73
2018-12-05T23:53:43.180Z,101535.98
2018-12-05T23:56:12.445Z,101540.38
2018-12-05T23:58:41.714Z,101538.47
